createdAt,value
2019-05-28T00:00:01.789Z,70.25
2019-05-28T00:00:52.917Z,70.25
2019-05-28T00:01:51.893Z,70.28
2019-05-28T00:02:51.927Z,71.30
2019-05-28T00:03:51.885Z,71.30
2019-05-28T00:04:51.858Z,70.58
2019-05-28T00:05:51.854Z,70.48
2019-05-28T00:06:51.853Z,70.18
2019-05-28T00:07:51.844Z,70.28
2019-05-28T00:08:51.867Z,70.28
2019-05-28T00:09:51.828Z,70.28
2019-05-28T00:10:51.792Z,69.87
2019-05-28T00:11:51.811Z,69.67
2019-05-28T00:12:51.778Z,69.67
2019-05-28T00:13:51.770Z,69.57
2019-05-28T00:14:51.797Z,70.79
2019-05-28T00:15:51.762Z,70.99
2019-05-28T00:16:51.729Z,71.60
2019-05-28T00:17:51.722Z,70.79
2019-05-28T00:18:51.726Z,71.30
2019-05-28T00:19:51.711Z,70.68
2019-05-28T00:20:51.716Z,70.58
2019-05-28T00:21:51.699Z,71.30
2019-05-28T00:22:51.679Z,71.19
2019-05-28T00:23:51.666Z,71.19
2019-05-28T00:24:51.650Z,70.48
2019-05-28T00:25:51.667Z,69.97
2019-05-28T00:26:51.636Z,70.48
2019-05-28T00:27:51.616Z,70.79
2019-05-28T00:28:51.608Z,70.28
2019-05-28T00:29:51.612Z,70.07
2019-05-28T00:30:51.629Z,70.48
2019-05-28T00:31:51.577Z,69.97
2019-05-28T00:32:51.562Z,70.79
2019-05-28T00:33:51.566Z,70.28
2019-05-28T00:34:51.554Z,69.57
2019-05-28T00:35:51.545Z,70.79
2019-05-28T00:36:51.541Z,70.99
2019-05-28T00:37:51.555Z,70.79
2019-05-28T00:38:51.498Z,70.99
2019-05-28T00:39:51.492Z,71.19
2019-05-28T00:40:51.474Z,70.79
2019-05-28T00:41:51.503Z,71.19
2019-05-28T00:42:51.464Z,71.02
2019-05-28T00:43:51.446Z,71.12
2019-05-28T00:44:51.447Z,70.62
2019-05-28T00:45:51.420Z,70.82
2019-05-28T00:46:51.424Z,71.23
2019-05-28T00:47:51.422Z,71.12
2019-05-28T00:48:51.388Z,71.12
2019-05-28T00:49:51.383Z,70.62
2019-05-28T00:50:51.374Z,70.68
2019-05-28T00:51:51.394Z,71.40
2019-05-28T00:52:51.364Z,70.48
2019-05-28T00:53:51.349Z,69.46
2019-05-28T00:54:51.322Z,69.57
2019-05-28T00:55:51.313Z,70.18
2019-05-28T00:56:51.354Z,69.87
2019-05-28T00:57:51.330Z,70.58
2019-05-28T00:58:51.296Z,69.97
2019-05-28T00:59:51.278Z,69.77
2019-05-28T01:00:51.286Z,70.18
2019-05-28T01:01:51.289Z,69.46
2019-05-28T01:02:51.258Z,69.26
2019-05-28T01:03:51.256Z,69.87
2019-05-28T01:04:51.223Z,70.28
2019-05-28T01:05:51.211Z,71.09
2019-05-28T01:06:51.217Z,70.99
2019-05-28T01:07:51.168Z,71.19
2019-05-28T01:08:51.189Z,70.79
2019-05-28T01:09:51.171Z,71.30
2019-05-28T01:10:51.163Z,71.40
2019-05-28T01:11:51.145Z,71.40
2019-05-28T01:12:51.147Z,71.70
2019-05-28T01:13:51.126Z,71.40
2019-05-28T01:14:51.151Z,71.30
2019-05-28T01:15:51.114Z,71.30
2019-05-28T01:16:51.118Z,71.60
2019-05-28T01:17:51.084Z,70.48
2019-05-28T01:18:51.113Z,70.28
2019-05-28T01:19:51.062Z,70.48
2019-05-28T01:20:51.062Z,70.79
2019-05-28T01:21:51.046Z,70.58
2019-05-28T01:22:51.047Z,71.09
2019-05-28T01:23:51.004Z,71.40
2019-05-28T01:24:51.020Z,71.80
2019-05-28T01:25:50.995Z,71.40
2019-05-28T01:26:50.988Z,72.11
2019-05-28T01:27:50.963Z,72.21
2019-05-28T01:28:50.956Z,71.19
2019-05-28T01:29:50.979Z,72.25
2019-05-28T01:30:57.586Z,71.84
2019-05-28T01:31:51.924Z,72.45
2019-05-28T01:32:50.904Z,73.16
2019-05-28T01:33:50.916Z,73.47
2019-05-28T01:34:50.892Z,73.57
2019-05-28T01:35:50.930Z,73.26
2019-05-28T01:36:50.871Z,73.36
2019-05-28T01:37:50.870Z,73.26
2019-05-28T01:38:50.853Z,72.96
2019-05-28T01:39:50.840Z,72.86
2019-05-28T01:40:50.820Z,73.06
2019-05-28T01:41:50.837Z,72.14
2019-05-28T01:42:50.826Z,71.84
2019-05-28T01:43:50.836Z,72.34
2019-05-28T01:44:50.809Z,72.45
2019-05-28T01:45:50.780Z,72.14
2019-05-28T01:46:50.806Z,72.17
2019-05-28T01:47:50.753Z,72.89
2019-05-28T01:48:50.740Z,72.08
2019-05-28T01:49:50.716Z,71.77
2019-05-28T01:50:50.734Z,71.67
2019-05-28T01:51:50.737Z,72.28
2019-05-28T01:52:50.699Z,72.89
2019-05-28T01:53:50.689Z,72.89
2019-05-28T01:54:50.683Z,73.71
2019-05-28T01:55:50.658Z,73.43
2019-05-28T01:56:50.698Z,73.43
2019-05-28T01:57:50.652Z,73.13
2019-05-28T01:58:50.650Z,72.11
2019-05-28T01:59:50.615Z,72.24
2019-05-28T02:00:50.629Z,72.96
2019-05-28T02:01:50.597Z,73.10
2019-05-28T02:02:50.659Z,73.91
2019-05-28T02:03:50.625Z,74.21
2019-05-28T02:04:50.817Z,74.32
2019-05-28T02:05:50.567Z,73.33
2019-05-28T02:06:50.555Z,73.43
2019-05-28T02:07:50.562Z,73.74
2019-05-28T02:08:50.523Z,74.08
2019-05-28T02:09:50.517Z,73.57
2019-05-28T02:10:50.519Z,74.90
2019-05-28T02:11:50.494Z,74.93
2019-05-28T02:12:50.501Z,75.54
2019-05-28T02:13:50.475Z,76.29
2019-05-28T02:14:50.462Z,77.22
2019-05-28T02:15:50.455Z,77.83
2019-05-28T02:16:50.555Z,77.93
2019-05-28T02:17:50.425Z,78.17
2019-05-28T02:18:50.432Z,78.17
2019-05-28T02:19:50.408Z,78.38
2019-05-28T02:20:50.433Z,78.61
2019-05-28T02:21:50.381Z,79.23
2019-05-28T02:22:50.373Z,79.33
2019-05-28T02:23:50.409Z,79.43
2019-05-28T02:24:50.369Z,80.05
2019-05-28T02:25:50.344Z,80.39
2019-05-28T02:26:50.334Z,81.10
2019-05-28T02:27:50.323Z,81.10
2019-05-28T02:28:50.303Z,80.29
2019-05-28T02:29:50.307Z,80.69
2019-05-28T02:30:50.314Z,80.69
2019-05-28T02:31:50.276Z,80.69
2019-05-28T02:32:50.261Z,80.60
2019-05-28T02:33:50.250Z,80.69
2019-05-28T02:34:50.256Z,81.01
2019-05-28T02:35:50.336Z,81.15
2019-05-28T02:36:50.217Z,81.24
2019-05-28T02:37:50.219Z,81.45
2019-05-28T02:38:50.209Z,81.65
2019-05-28T02:39:50.205Z,81.86
2019-05-28T02:40:50.183Z,81.96
2019-05-28T02:41:50.165Z,82.41
2019-05-28T02:42:50.159Z,82.41
2019-05-28T02:43:50.162Z,82.51
2019-05-28T02:44:50.125Z,82.62
2019-05-28T02:45:50.150Z,82.71
2019-05-28T02:46:50.115Z,82.82
2019-05-28T02:47:50.155Z,82.62
2019-05-28T02:48:50.088Z,82.45
2019-05-28T02:49:50.085Z,83.17
2019-05-28T02:50:50.085Z,83.27
2019-05-28T02:51:50.135Z,82.96
2019-05-28T02:52:50.044Z,83.06
2019-05-28T02:53:50.043Z,83.06
2019-05-28T02:54:50.031Z,83.47
2019-05-28T02:55:50.011Z,83.78
2019-05-28T02:56:50.048Z,83.88
2019-05-28T02:57:50.034Z,84.09
2019-05-28T02:58:49.980Z,84.23
2019-05-28T02:59:49.970Z,84.44
2019-05-28T03:00:49.962Z,84.44
2019-05-28T03:01:49.967Z,84.64
2019-05-28T03:02:49.982Z,84.33
2019-05-28T03:03:49.940Z,84.23
2019-05-28T03:04:49.931Z,84.68
2019-05-28T03:05:49.937Z,84.84
2019-05-28T03:06:49.914Z,84.53
2019-05-28T03:07:49.892Z,84.44
2019-05-28T03:08:49.915Z,84.64
2019-05-28T03:09:49.868Z,84.64
2019-05-28T03:11:02.277Z,84.95
2019-05-28T03:11:50.835Z,85.15
2019-05-28T03:12:49.842Z,84.99
2019-05-28T03:13:49.860Z,85.30
2019-05-28T03:14:49.818Z,85.39
2019-05-28T03:15:49.812Z,85.50
2019-05-28T03:16:49.800Z,85.09
2019-05-28T03:17:49.812Z,85.60
2019-05-28T03:18:49.780Z,85.60
2019-05-28T03:19:49.786Z,85.60
2019-05-28T03:20:49.756Z,85.71
2019-05-28T03:21:49.745Z,85.71
2019-05-28T03:22:49.725Z,85.60
2019-05-28T03:23:49.727Z,85.91
2019-05-28T03:24:49.706Z,85.71
2019-05-28T03:25:49.751Z,86.01
2019-05-28T03:26:49.686Z,86.11
2019-05-28T03:27:49.683Z,86.22
2019-05-28T03:28:49.668Z,86.32
2019-05-28T03:29:49.642Z,86.22
2019-05-28T03:30:49.682Z,86.52
2019-05-28T03:32:07.237Z,86.63
2019-05-28T03:32:50.655Z,86.42
2019-05-28T03:33:49.601Z,86.11
2019-05-28T03:34:49.604Z,85.91
2019-05-28T03:35:49.619Z,85.71
2019-05-28T03:36:49.598Z,85.60
2019-05-28T03:37:49.568Z,85.36
2019-05-28T03:38:49.561Z,85.05
2019-05-28T03:39:49.565Z,84.09
2019-05-28T03:40:49.542Z,83.44
2019-05-28T03:41:49.566Z,82.92
2019-05-28T03:42:49.539Z,82.41
2019-05-28T03:43:49.505Z,82.17
2019-05-28T03:44:49.498Z,81.86
2019-05-28T03:45:49.489Z,81.86
2019-05-28T03:46:49.478Z,81.96
2019-05-28T03:47:49.464Z,81.96
2019-05-28T03:48:49.450Z,82.07
2019-05-28T03:49:49.436Z,81.96
2019-05-28T03:50:49.460Z,81.96
2019-05-28T03:51:49.429Z,82.07
2019-05-28T03:52:49.435Z,82.07
2019-05-28T03:53:49.402Z,81.96
2019-05-28T03:54:49.376Z,81.65
2019-05-28T03:55:49.431Z,81.65
2019-05-28T03:56:49.373Z,81.72
2019-05-28T03:57:49.369Z,81.72
2019-05-28T03:58:49.350Z,81.51
2019-05-28T03:59:49.343Z,81.10
2019-05-28T04:00:49.335Z,81.10
2019-05-28T04:01:49.357Z,80.69
2019-05-28T04:02:49.343Z,80.69
2019-05-28T04:03:49.281Z,80.60
2019-05-28T04:04:49.283Z,80.39
2019-05-28T04:05:49.292Z,80.29
2019-05-28T04:06:49.264Z,80.49
2019-05-28T04:07:49.250Z,80.39
2019-05-28T04:08:49.310Z,80.29
2019-05-28T04:09:49.232Z,80.39
2019-05-28T04:10:49.214Z,80.25
2019-05-28T04:11:49.207Z,79.64
2019-05-28T04:12:49.200Z,79.23
2019-05-28T04:13:49.200Z,79.64
2019-05-28T04:14:49.168Z,79.74
2019-05-28T04:15:49.160Z,79.84
2019-05-28T04:16:49.153Z,79.64
2019-05-28T04:17:49.156Z,79.84
2019-05-28T04:18:49.129Z,79.84
2019-05-28T04:19:49.135Z,79.74
2019-05-28T04:20:49.112Z,79.74
2019-05-28T04:21:49.097Z,79.53
2019-05-28T04:22:49.094Z,79.64
2019-05-28T04:23:49.116Z,79.33
2019-05-28T04:24:49.069Z,79.23
2019-05-28T04:25:49.066Z,79.13
2019-05-28T04:26:49.027Z,79.33
2019-05-28T04:27:49.034Z,79.33
2019-05-28T04:28:49.023Z,78.82
2019-05-28T04:29:49.039Z,78.72
2019-05-28T04:30:49.006Z,78.88
2019-05-28T04:31:48.994Z,78.88
2019-05-28T04:32:48.985Z,78.78
2019-05-28T04:33:48.966Z,78.48
2019-05-28T04:34:48.950Z,78.07
2019-05-28T04:35:49.004Z,77.83
2019-05-28T04:36:48.936Z,77.62
2019-05-28T04:37:48.927Z,77.97
2019-05-28T04:38:48.912Z,77.93
2019-05-28T04:39:48.910Z,77.83
2019-05-28T04:40:48.942Z,77.62
2019-05-28T04:41:48.877Z,77.31
2019-05-28T04:42:48.869Z,77.52
2019-05-28T04:43:48.846Z,78.03
2019-05-28T04:44:48.867Z,78.75
2019-05-28T04:45:48.869Z,79.57
2019-05-28T04:46:48.835Z,78.64
2019-05-28T04:47:48.824Z,78.23
2019-05-28T04:48:48.799Z,78.54
2019-05-28T04:49:48.789Z,78.34
2019-05-28T04:50:48.783Z,78.03
2019-05-28T04:51:48.791Z,77.89
2019-05-28T04:52:48.781Z,77.89
2019-05-28T04:53:48.741Z,78.09
2019-05-28T04:54:48.761Z,78.00
2019-05-28T04:55:48.745Z,77.55
2019-05-28T04:56:48.741Z,77.04
2019-05-28T04:57:48.707Z,77.04
2019-05-28T04:58:48.702Z,76.19
2019-05-28T04:59:48.689Z,75.98
2019-05-28T05:00:50.823Z,74.96
2019-05-28T05:01:48.671Z,75.07
2019-05-28T05:02:59.352Z,74.76
2019-05-28T05:03:49.649Z,74.73
2019-05-28T05:04:48.627Z,75.03
2019-05-28T05:05:48.623Z,74.11
2019-05-28T05:06:49.285Z,73.88
2019-05-28T05:07:48.629Z,73.91
2019-05-28T05:08:48.622Z,73.36
2019-05-28T05:09:49.322Z,73.81
2019-05-28T05:10:48.592Z,73.97
2019-05-28T05:11:48.557Z,73.43
2019-05-28T05:12:48.551Z,72.82
2019-05-28T05:13:48.567Z,72.21
2019-05-28T05:14:48.531Z,71.70
2019-05-28T05:15:48.506Z,72.11
2019-05-28T05:16:48.524Z,72.62
2019-05-28T05:17:48.487Z,72.41
2019-05-28T05:18:48.487Z,71.87
2019-05-28T05:19:48.495Z,71.77
2019-05-28T05:20:48.465Z,71.26
2019-05-28T05:21:48.455Z,71.16
2019-05-28T05:22:48.443Z,70.82
2019-05-28T05:23:48.440Z,70.72
2019-05-28T05:24:48.463Z,69.87
2019-05-28T05:25:48.411Z,69.77
2019-05-28T05:26:48.387Z,69.57
2019-05-28T05:27:48.392Z,69.13
2019-05-28T05:28:48.391Z,68.62
2019-05-28T05:29:48.414Z,68.62
2019-05-28T05:30:48.352Z,68.72
2019-05-28T05:31:48.339Z,67.91
2019-05-28T05:32:48.341Z,68.41
2019-05-28T05:33:48.310Z,68.21
2019-05-28T05:34:48.303Z,68.21
2019-05-28T05:35:48.360Z,67.57
2019-05-28T05:36:48.282Z,67.97
2019-05-28T05:37:49.463Z,67.57
2019-05-28T05:38:48.251Z,66.79
2019-05-28T05:39:49.260Z,67.19
2019-05-28T05:40:48.267Z,69.13
2019-05-28T05:41:48.224Z,70.45
2019-05-28T05:42:48.233Z,69.81
2019-05-28T05:43:48.209Z,70.21
2019-05-28T05:44:48.201Z,70.62
2019-05-28T05:45:48.250Z,70.52
2019-05-28T05:46:48.170Z,71.06
2019-05-28T05:47:48.160Z,70.62
2019-05-28T05:48:48.178Z,70.96
2019-05-28T05:49:48.150Z,71.06
2019-05-28T05:50:48.131Z,70.86
2019-05-28T05:51:49.228Z,70.96
2019-05-28T05:52:48.103Z,71.60
2019-05-28T05:53:48.094Z,72.82
2019-05-28T05:54:48.105Z,72.72
2019-05-28T05:55:48.092Z,72.89
2019-05-28T05:56:48.109Z,71.43
2019-05-28T05:57:48.057Z,71.53
2019-05-28T05:58:48.038Z,71.03
2019-05-28T05:59:48.062Z,71.73
2019-05-28T06:00:48.062Z,71.43
2019-05-28T06:01:48.062Z,71.12
2019-05-28T06:02:48.023Z,71.40
2019-05-28T06:03:48.004Z,69.95
2019-05-28T06:04:47.987Z,67.68
2019-05-28T06:05:47.975Z,66.60
2019-05-28T06:06:47.986Z,65.05
2019-05-28T06:07:47.986Z,63.57
2019-05-28T06:08:47.954Z,64.11
2019-05-28T06:09:47.949Z,63.20
2019-05-28T06:10:47.957Z,64.78
2019-05-28T06:11:47.924Z,66.43
2019-05-28T06:12:47.949Z,66.43
2019-05-28T06:13:47.896Z,66.05
2019-05-28T06:14:47.909Z,67.10
2019-05-28T06:15:47.864Z,66.77
2019-05-28T06:16:47.850Z,64.98
2019-05-28T06:17:47.846Z,64.78
2019-05-28T06:18:47.868Z,64.34
2019-05-28T06:19:47.912Z,64.14
2019-05-28T06:20:47.924Z,63.93
2019-05-28T06:21:47.815Z,64.31
2019-05-28T06:22:47.793Z,65.08
2019-05-28T06:23:47.839Z,66.13
2019-05-28T06:24:47.800Z,66.23
2019-05-28T06:25:47.751Z,66.86
2019-05-28T06:26:47.772Z,66.86
2019-05-28T06:27:47.792Z,67.17
2019-05-28T06:28:47.735Z,67.78
2019-05-28T06:29:47.748Z,67.91
2019-05-28T06:30:47.714Z,69.03
2019-05-28T06:31:47.720Z,68.83
2019-05-28T06:32:47.708Z,68.22
2019-05-28T06:33:56.969Z,68.86
2019-05-28T06:34:48.715Z,71.06
2019-05-28T06:35:47.667Z,72.52
2019-05-28T06:36:47.640Z,72.17
2019-05-28T06:37:47.637Z,72.58
2019-05-28T06:38:47.602Z,72.38
2019-05-28T06:39:47.600Z,72.08
2019-05-28T06:40:47.610Z,71.73
2019-05-28T06:41:47.576Z,71.03
2019-05-28T06:42:47.560Z,71.33
2019-05-28T06:43:47.577Z,70.48
2019-05-28T06:44:47.566Z,69.98
2019-05-28T06:45:47.550Z,70.15
2019-05-28T06:46:47.542Z,68.90
2019-05-28T06:47:47.513Z,67.78
2019-05-28T06:48:47.503Z,66.70
2019-05-28T06:49:47.505Z,65.62
2019-05-28T06:50:47.529Z,63.95
2019-05-28T06:51:47.525Z,62.16
2019-05-28T06:52:47.480Z,61.87
2019-05-28T06:53:47.464Z,60.60
2019-05-28T06:54:47.439Z,58.82
2019-05-28T06:55:47.454Z,58.80
2019-05-28T06:56:47.490Z,57.68
2019-05-28T06:57:47.458Z,59.18
2019-05-28T06:58:47.475Z,59.71
2019-05-28T06:59:47.419Z,59.86
2019-05-28T07:00:47.369Z,56.75
2019-05-28T07:01:47.378Z,57.38
2019-05-28T07:02:47.459Z,59.48
2019-05-28T07:03:47.369Z,59.15
2019-05-28T07:04:47.397Z,58.42
2019-05-28T07:06:03.355Z,56.02
2019-05-28T07:06:48.356Z,54.88
2019-05-28T07:07:47.304Z,54.35
2019-05-28T07:08:47.367Z,53.22
2019-05-28T07:09:47.285Z,52.80
2019-05-28T07:10:57.156Z,52.04
2019-05-28T07:11:48.281Z,50.68
2019-05-28T07:12:47.236Z,48.63
2019-05-28T07:13:47.264Z,49.78
2019-05-28T07:14:47.221Z,51.14
2019-05-28T07:15:47.205Z,50.59
2019-05-28T07:16:53.159Z,47.91
2019-05-28T07:17:48.217Z,47.83
2019-05-28T07:18:47.205Z,48.01
2019-05-28T07:19:47.176Z,48.11
2019-05-28T07:20:47.207Z,47.08
2019-05-28T07:21:47.143Z,47.20
2019-05-28T07:22:47.143Z,46.48
2019-05-28T07:23:47.207Z,48.60
2019-05-28T07:24:47.142Z,49.53
2019-05-28T07:25:47.109Z,49.51
2019-05-28T07:26:47.141Z,49.21
2019-05-28T07:27:47.079Z,49.40
2019-05-28T07:28:47.075Z,48.10
2019-05-28T07:29:47.087Z,47.65
2019-05-28T07:30:47.056Z,47.50
2019-05-28T07:31:47.059Z,47.71
2019-05-28T07:32:47.048Z,45.68
2019-05-28T07:33:47.033Z,44.82
2019-05-28T07:34:47.031Z,46.70
2019-05-28T07:35:47.007Z,46.38
2019-05-28T07:36:46.993Z,46.58
2019-05-28T07:37:46.993Z,44.71
2019-05-28T07:38:46.980Z,44.39
2019-05-28T07:39:46.963Z,43.55
2019-05-28T07:40:46.939Z,43.03
2019-05-28T07:41:46.936Z,43.70
2019-05-28T07:42:46.939Z,47.13
2019-05-28T07:43:46.923Z,49.91
2019-05-28T07:44:46.935Z,51.04
2019-05-28T07:45:46.894Z,50.53
2019-05-28T07:46:46.895Z,51.68
2019-05-28T07:47:46.884Z,53.47
2019-05-28T07:48:46.860Z,53.02
2019-05-28T07:49:46.863Z,52.92
2019-05-28T07:50:46.867Z,53.98
2019-05-28T07:51:46.845Z,55.01
2019-05-28T07:52:46.834Z,56.48
2019-05-28T07:53:46.820Z,56.90
2019-05-28T07:54:46.794Z,57.91
2019-05-28T07:55:46.868Z,57.68
2019-05-28T07:56:46.786Z,57.41
2019-05-28T07:57:46.774Z,58.45
2019-05-28T07:58:46.765Z,58.98
2019-05-28T07:59:46.755Z,59.69
2019-05-28T08:00:46.747Z,58.67
2019-05-28T08:01:46.743Z,59.94
2019-05-28T08:02:46.705Z,59.74
2019-05-28T08:03:46.736Z,59.89
2019-05-28T08:04:47.905Z,59.38
2019-05-28T08:05:46.696Z,59.31
2019-05-28T08:06:54.757Z,60.09
2019-05-28T08:07:47.677Z,58.58
2019-05-28T08:08:46.645Z,58.78
2019-05-28T08:09:46.661Z,59.18
2019-05-28T08:10:46.635Z,59.71
2019-05-28T08:11:46.613Z,60.62
2019-05-28T08:12:46.633Z,59.11
2019-05-28T08:13:46.626Z,61.01
2019-05-28T08:14:47.209Z,61.79
2019-05-28T08:15:47.171Z,61.72
2019-05-28T08:16:52.635Z,61.99
2019-05-28T08:17:47.582Z,61.59
2019-05-28T08:18:46.548Z,62.19
2019-05-28T08:19:46.661Z,61.25
2019-05-28T08:20:47.514Z,60.65
2019-05-28T08:21:47.962Z,60.75
2019-05-28T08:22:47.645Z,61.59
2019-05-28T08:23:48.067Z,63.04
2019-05-28T08:24:47.685Z,62.19
2019-05-28T08:25:48.210Z,61.90
2019-05-28T08:26:47.870Z,61.59
2019-05-28T08:27:46.477Z,60.72
2019-05-28T08:28:46.462Z,59.25
2019-05-28T08:29:46.460Z,59.08
2019-05-28T08:30:46.418Z,60.52
2019-05-28T08:31:46.396Z,60.96
2019-05-28T08:32:46.393Z,61.46
2019-05-28T08:33:46.420Z,60.89
2019-05-28T08:35:02.126Z,59.35
2019-05-28T08:35:47.374Z,58.75
2019-05-28T08:37:01.784Z,58.85
2019-05-28T08:37:47.355Z,59.05
2019-05-28T08:38:46.384Z,59.15
2019-05-28T08:39:46.312Z,58.01
2019-05-28T08:40:46.334Z,58.01
2019-05-28T08:41:46.298Z,57.68
2019-05-28T08:42:46.313Z,56.88
2019-05-28T08:43:46.270Z,57.10
2019-05-28T08:44:46.281Z,57.76
2019-05-28T08:45:46.258Z,58.93
2019-05-28T08:46:46.264Z,59.21
2019-05-28T08:47:46.236Z,59.41
2019-05-28T08:48:46.241Z,59.69
2019-05-28T08:49:46.256Z,59.58
2019-05-28T08:50:46.197Z,60.12
2019-05-28T08:51:46.192Z,59.89
2019-05-28T08:52:46.176Z,58.87
2019-05-28T08:53:46.182Z,58.07
2019-05-28T08:54:46.150Z,58.45
2019-05-28T08:55:46.197Z,57.94
2019-05-28T08:56:46.145Z,57.01
2019-05-28T08:57:46.119Z,57.14
2019-05-28T08:58:46.118Z,56.90
2019-05-28T08:59:46.194Z,56.35
2019-05-28T09:00:46.112Z,55.21
2019-05-28T09:01:46.076Z,54.38
2019-05-28T09:02:46.100Z,53.34
2019-05-28T09:03:46.059Z,53.05
2019-05-28T09:04:46.075Z,52.59
2019-05-28T09:05:46.068Z,54.21
2019-05-28T09:06:46.056Z,55.09
2019-05-28T09:07:46.041Z,55.06
2019-05-28T09:08:46.193Z,54.41
2019-05-28T09:09:45.985Z,54.18
2019-05-28T09:10:46.062Z,54.21
2019-05-28T09:11:46.116Z,54.38
2019-05-28T09:12:45.994Z,54.08
2019-05-28T09:13:45.959Z,53.02
2019-05-28T09:14:55.912Z,52.89
2019-05-28T09:15:46.982Z,51.44
2019-05-28T09:16:46.232Z,51.06
2019-05-28T09:17:45.926Z,52.51
2019-05-28T09:18:45.941Z,53.83
2019-05-28T09:19:45.886Z,52.49
2019-05-28T09:20:45.911Z,51.49
2019-05-28T09:21:45.858Z,52.09
2019-05-28T09:22:45.875Z,51.39
2019-05-28T09:23:45.852Z,52.51
2019-05-28T09:24:46.087Z,51.81
2019-05-28T09:25:45.877Z,53.00
2019-05-28T09:26:45.801Z,52.67
2019-05-28T09:27:45.815Z,53.30
2019-05-28T09:28:45.976Z,53.14
2019-05-28T09:29:45.849Z,52.62
2019-05-28T09:30:45.798Z,51.36
2019-05-28T09:31:45.762Z,51.71
2019-05-28T09:32:45.817Z,51.54
2019-05-28T09:33:45.769Z,52.22
2019-05-28T09:34:45.746Z,51.51
2019-05-28T09:36:03.792Z,50.81
2019-05-28T09:36:46.963Z,51.64
2019-05-28T09:37:45.688Z,52.17
2019-05-28T09:38:45.863Z,52.72
2019-05-28T09:39:45.686Z,53.92
2019-05-28T09:40:50.370Z,53.20
2019-05-28T09:41:46.676Z,52.06
2019-05-28T09:42:45.676Z,52.04
2019-05-28T09:43:45.633Z,50.91
2019-05-28T09:44:45.648Z,51.76
2019-05-28T09:45:45.615Z,51.54
2019-05-28T09:46:45.628Z,52.39
2019-05-28T09:47:45.603Z,52.77
2019-05-28T09:48:45.568Z,51.03
2019-05-28T09:49:45.572Z,51.06
2019-05-28T09:50:45.569Z,53.27
2019-05-28T09:51:45.547Z,52.24
2019-05-28T09:52:54.448Z,50.35
2019-05-28T09:53:46.532Z,50.03
2019-05-28T09:54:45.525Z,50.13
2019-05-28T09:55:45.515Z,48.66
2019-05-28T09:56:45.521Z,47.08
2019-05-28T09:57:47.769Z,46.78
2019-05-28T09:58:45.497Z,46.53
2019-05-28T09:59:45.450Z,46.30
2019-05-28T10:00:57.356Z,46.86
2019-05-28T10:01:46.456Z,45.79
2019-05-28T10:02:45.449Z,43.35
2019-05-28T10:03:45.425Z,44.64
2019-05-28T10:04:49.732Z,44.92
2019-05-28T10:06:01.737Z,45.96
2019-05-28T10:06:46.396Z,45.28
2019-05-28T10:07:45.375Z,45.46
2019-05-28T10:08:45.380Z,46.30
2019-05-28T10:09:45.397Z,47.25
2019-05-28T10:10:45.337Z,48.28
2019-05-28T10:11:45.375Z,47.75
2019-05-28T10:12:45.331Z,47.88
2019-05-28T10:13:45.333Z,48.05
2019-05-28T10:14:45.300Z,48.05
2019-05-28T10:15:45.318Z,47.96
2019-05-28T10:16:45.303Z,46.85
2019-05-28T10:17:45.258Z,47.50
2019-05-28T10:18:45.265Z,47.15
2019-05-28T10:19:45.257Z,44.42
2019-05-28T10:20:45.239Z,43.71
2019-05-28T10:21:45.269Z,43.93
2019-05-28T10:22:45.243Z,43.90
2019-05-28T10:23:45.206Z,43.62
2019-05-28T10:24:45.705Z,43.57
2019-05-28T10:25:45.204Z,41.99
2019-05-28T10:26:45.181Z,43.84
2019-05-28T10:27:59.991Z,44.06
2019-05-28T10:28:49.640Z,45.68
2019-05-28T10:29:45.161Z,44.76
2019-05-28T10:30:45.149Z,43.74
2019-05-28T10:31:45.136Z,44.80
2019-05-28T10:32:45.136Z,44.70
2019-05-28T10:33:45.113Z,45.22
2019-05-28T10:35:02.550Z,46.17
2019-05-28T10:35:46.099Z,47.90
2019-05-28T10:36:45.086Z,48.52
2019-05-28T10:37:45.131Z,48.75
2019-05-28T10:38:45.061Z,48.93
2019-05-28T10:39:45.047Z,47.90
2019-05-28T10:40:45.039Z,47.88
2019-05-28T10:41:45.041Z,46.89
2019-05-28T10:42:45.018Z,46.22
2019-05-28T10:43:45.032Z,48.25
2019-05-28T10:44:45.383Z,48.65
2019-05-28T10:45:45.476Z,48.43
2019-05-28T10:46:44.977Z,48.12
2019-05-28T10:47:44.983Z,48.00
2019-05-28T10:48:44.976Z,46.75
2019-05-28T10:49:44.934Z,47.17
2019-05-28T10:50:44.925Z,49.05
2019-05-28T10:51:44.938Z,48.72
2019-05-28T10:52:44.928Z,47.80
2019-05-28T10:53:44.946Z,46.83
2019-05-28T10:54:44.901Z,47.49
2019-05-28T10:55:44.870Z,44.84
2019-05-28T10:56:44.864Z,44.01
2019-05-28T10:57:44.858Z,44.42
2019-05-28T10:58:44.836Z,44.26
2019-05-28T10:59:44.867Z,44.34
2019-05-28T11:00:44.832Z,44.43
2019-05-28T11:01:44.813Z,43.74
2019-05-28T11:02:44.800Z,43.96
2019-05-28T11:03:47.098Z,43.74
2019-05-28T11:04:44.857Z,43.12
2019-05-28T11:05:44.773Z,43.91
2019-05-28T11:06:51.743Z,43.93
2019-05-28T11:07:45.746Z,42.40
2019-05-28T11:08:44.728Z,40.53
2019-05-28T11:09:44.746Z,41.85
2019-05-28T11:10:44.747Z,39.60
2019-05-28T11:11:44.706Z,40.62
2019-05-28T11:12:44.686Z,40.83
2019-05-28T11:13:53.043Z,40.42
2019-05-28T11:14:45.682Z,40.58
2019-05-28T11:15:44.698Z,41.80
2019-05-28T11:16:44.657Z,42.63
2019-05-28T11:17:44.687Z,44.40
2019-05-28T11:18:44.653Z,44.72
2019-05-28T11:19:44.617Z,44.70
2019-05-28T11:20:44.653Z,42.41
2019-05-28T11:21:44.609Z,41.17
2019-05-28T11:22:44.625Z,41.99
2019-05-28T11:23:44.606Z,42.91
2019-05-28T11:24:44.599Z,42.33
2019-05-28T11:25:44.565Z,41.58
2019-05-28T11:26:44.592Z,42.60
2019-05-28T11:27:44.541Z,41.41
2019-05-28T11:28:44.544Z,40.94
2019-05-28T11:29:44.539Z,40.44
2019-05-28T11:30:44.532Z,39.50
2019-05-28T11:31:44.544Z,39.86
2019-05-28T11:32:46.297Z,39.94
2019-05-28T11:33:44.481Z,40.83
2019-05-28T11:34:44.495Z,41.91
2019-05-28T11:35:44.449Z,41.30
2019-05-28T11:36:44.482Z,39.92
2019-05-28T11:37:44.475Z,38.60
2019-05-28T11:38:44.442Z,40.16
2019-05-28T11:39:44.419Z,42.02
2019-05-28T11:40:44.414Z,41.99
2019-05-28T11:41:44.399Z,43.77
2019-05-28T11:42:44.408Z,43.40
2019-05-28T11:43:44.383Z,43.62
2019-05-28T11:44:44.380Z,44.02
2019-05-28T11:45:44.393Z,44.48
2019-05-28T11:46:44.363Z,42.46
2019-05-28T11:47:44.818Z,40.58
2019-05-28T11:48:44.329Z,42.18
2019-05-28T11:49:44.316Z,42.02
2019-05-28T11:50:44.323Z,42.96
2019-05-28T11:51:44.302Z,43.98
2019-05-28T11:52:44.299Z,43.24
2019-05-28T11:53:44.267Z,43.33
2019-05-28T11:54:44.280Z,44.40
2019-05-28T11:55:44.257Z,45.92
2019-05-28T11:56:44.235Z,46.45
2019-05-28T11:57:44.287Z,46.35
2019-05-28T11:58:44.211Z,45.50
2019-05-28T11:59:44.220Z,45.80
2019-05-28T12:00:44.225Z,45.68
2019-05-28T12:01:44.217Z,44.88
2019-05-28T12:02:44.199Z,45.92
2019-05-28T12:03:44.202Z,46.73
2019-05-28T12:04:44.159Z,46.11
2019-05-28T12:05:44.152Z,46.68
2019-05-28T12:06:44.137Z,45.88
2019-05-28T12:07:44.116Z,46.70
2019-05-28T12:08:44.169Z,46.53
2019-05-28T12:09:44.104Z,46.93
2019-05-28T12:10:44.105Z,46.81
2019-05-28T12:11:44.130Z,46.81
2019-05-28T12:12:44.088Z,45.90
2019-05-28T12:13:44.094Z,46.35
2019-05-28T12:14:44.108Z,46.97
2019-05-28T12:15:44.053Z,48.30
2019-05-28T12:16:44.090Z,48.65
2019-05-28T12:17:45.465Z,48.80
2019-05-28T12:18:44.053Z,49.02
2019-05-28T12:19:44.010Z,49.53
2019-05-28T12:20:44.021Z,48.60
2019-05-28T12:21:44.008Z,48.72
2019-05-28T12:22:44.085Z,49.02
2019-05-28T12:23:43.986Z,48.50
2019-05-28T12:24:43.990Z,49.22
2019-05-28T12:25:43.943Z,49.40
2019-05-28T12:26:43.947Z,48.22
2019-05-28T12:27:43.913Z,49.13
2019-05-28T12:28:43.932Z,48.70
2019-05-28T12:29:51.750Z,48.10
2019-05-28T12:30:44.879Z,48.22
2019-05-28T12:31:43.891Z,49.48
2019-05-28T12:32:43.878Z,48.25
2019-05-28T12:33:43.883Z,47.85
2019-05-28T12:34:43.873Z,48.17
2019-05-28T12:35:43.891Z,48.97
2019-05-28T12:36:43.843Z,48.37
2019-05-28T12:37:49.362Z,49.82
2019-05-28T12:38:44.819Z,50.56
2019-05-28T12:39:43.836Z,50.33
2019-05-28T12:40:48.017Z,50.51
2019-05-28T12:41:43.773Z,49.50
2019-05-28T12:42:43.756Z,49.37
2019-05-28T12:43:43.769Z,49.57
2019-05-28T12:44:43.758Z,49.15
2019-05-28T12:45:44.053Z,48.22
2019-05-28T12:46:43.847Z,47.22
2019-05-28T12:47:44.823Z,48.07
2019-05-28T12:48:43.678Z,49.30
2019-05-28T12:49:43.675Z,49.70
2019-05-28T12:50:43.686Z,50.10
2019-05-28T12:51:43.898Z,49.70